createdAt,value
2022-10-22T00:00:49.859Z,65.5
2022-10-22T00:01:56.010Z,65.5
2022-10-22T00:03:02.116Z,65.5
2022-10-22T00:04:08.120Z,65.5
2022-10-22T00:05:14.291Z,65.5
2022-10-22T00:06:20.305Z,65.5
2022-10-22T00:07:25.585Z,65.5
2022-10-22T00:08:30.564Z,65.5
2022-10-22T00:09:35.848Z,65.5
2022-10-22T00:10:40.975Z,65.5
2022-10-22T00:11:47.089Z,65.5
2022-10-22T00:12:53.209Z,65.5
2022-10-22T00:13:59.445Z,65.5
2022-10-22T00:15:05.507Z,65.5
2022-10-22T00:16:11.548Z,65.5
2022-10-22T00:17:17.628Z,65.5
2022-10-22T00:18:23.752Z,65.5
2022-10-22T00:19:29.857Z,65.5
2022-10-22T00:20:35.853Z,65
2022-10-22T00:21:42.084Z,65
2022-10-22T00:22:48.228Z,65
2022-10-22T00:23:54.354Z,65
2022-10-22T00:24:59.480Z,65
2022-10-22T00:26:05.554Z,65
2022-10-22T00:27:11.671Z,65
2022-10-22T00:28:17.824Z,65
2022-10-22T00:29:23.940Z,65
2022-10-22T00:30:29.976Z,65
2022-10-22T00:31:36.008Z,65
2022-10-22T00:32:41.294Z,65
2022-10-22T00:33:46.396Z,65
2022-10-22T00:34:51.558Z,65
2022-10-22T00:35:56.562Z,65
2022-10-22T00:37:02.794Z,65
2022-10-22T00:38:08.869Z,65
2022-10-22T00:39:15.026Z,65
2022-10-22T00:40:20.993Z,65
2022-10-22T00:41:27.265Z,65
2022-10-22T00:42:33.222Z,65
2022-10-22T00:43:39.472Z,65
2022-10-22T00:44:45.569Z,65
2022-10-22T00:45:51.716Z,65
2022-10-22T00:46:57.811Z,65
2022-10-22T00:48:03.863Z,65
2022-10-22T00:49:10.047Z,65
2022-10-22T00:50:15.175Z,65
2022-10-22T00:51:21.318Z,65
2022-10-22T00:52:27.416Z,65
2022-10-22T00:53:33.483Z,65
2022-10-22T00:54:39.590Z,65
2022-10-22T00:55:45.740Z,65
2022-10-22T00:56:51.724Z,65
2022-10-22T00:57:57.010Z,65
2022-10-22T00:59:01.984Z,65
2022-10-22T01:00:07.192Z,65
2022-10-22T01:01:12.249Z,65
2022-10-22T01:02:18.522Z,65
2022-10-22T01:03:24.615Z,65
2022-10-22T01:05:36.839Z,65
2022-10-22T01:06:42.938Z,65
2022-10-22T01:07:49.084Z,65
2022-10-22T01:08:55.066Z,65
2022-10-22T01:10:01.313Z,65
2022-10-22T01:11:07.425Z,65
2022-10-22T01:12:13.381Z,65
2022-10-22T01:13:19.600Z,65
2022-10-22T01:14:25.738Z,65
2022-10-22T01:15:30.896Z,65
2022-10-22T01:16:36.860Z,65
2022-10-22T01:17:43.133Z,65
2022-10-22T01:18:49.238Z,65
2022-10-22T01:19:55.194Z,65
2022-10-22T01:21:01.461Z,65
2022-10-22T01:22:07.569Z,65
2022-10-22T01:23:13.542Z,65
2022-10-22T01:24:18.832Z,65
2022-10-22T01:25:23.962Z,65
2022-10-22T01:26:29.919Z,65
2022-10-22T01:27:36.216Z,65
2022-10-22T01:28:42.150Z,65
2022-10-22T01:29:48.417Z,65
2022-10-22T01:30:54.484Z,65
2022-10-22T01:32:00.486Z,65
2022-10-22T01:33:06.603Z,65
2022-10-22T01:34:12.707Z,65
2022-10-22T01:35:18.955Z,65
2022-10-22T01:36:25.053Z,65
2022-10-22T01:37:31.190Z,65
2022-10-22T01:38:37.307Z,65
2022-10-22T01:41:54.664Z,65
2022-10-22T01:42:59.775Z,65
2022-10-22T01:44:05.901Z,65
2022-10-22T01:45:11.130Z,65
2022-10-22T01:46:16.187Z,65
2022-10-22T01:47:22.294Z,65
2022-10-22T01:48:28.265Z,65
2022-10-22T01:49:34.390Z,65
2022-10-22T01:50:40.629Z,65
2022-10-22T01:51:46.755Z,65
2022-10-22T01:52:52.825Z,65
2022-10-22T01:53:58.935Z,65
2022-10-22T01:55:04.949Z,65
2022-10-22T01:56:11.079Z,65
2022-10-22T01:57:16.354Z,65
2022-10-22T01:58:21.353Z,65
2022-10-22T01:59:27.453Z,65
2022-10-22T02:00:33.712Z,65
2022-10-22T02:01:39.685Z,65
2022-10-22T02:02:45.796Z,65
2022-10-22T02:03:51.906Z,65
2022-10-22T02:04:58.161Z,65
2022-10-22T02:06:04.271Z,65
2022-10-22T02:07:10.237Z,65
2022-10-22T02:08:16.361Z,65
2022-10-22T02:09:22.550Z,65
2022-10-22T02:10:28.743Z,65
2022-10-22T02:11:34.833Z,65
2022-10-22T02:12:39.826Z,65
2022-10-22T02:13:45.946Z,65
2022-10-22T02:14:52.054Z,65
2022-10-22T02:15:58.166Z,65
2022-10-22T02:17:04.432Z,65
2022-10-22T02:18:10.537Z,65
2022-10-22T02:19:16.511Z,65
2022-10-22T02:20:21.645Z,65
2022-10-22T02:21:26.776Z,65
2022-10-22T02:22:32.918Z,65
2022-10-22T02:23:38.024Z,65
2022-10-22T02:24:43.151Z,65
2022-10-22T02:25:49.416Z,65
2022-10-22T02:26:55.555Z,65
2022-10-22T02:28:01.654Z,65
2022-10-22T02:29:07.614Z,65
2022-10-22T02:30:13.821Z,65
2022-10-22T02:31:19.930Z,65
2022-10-22T02:32:26.112Z,65
2022-10-22T02:33:32.209Z,65
2022-10-22T02:34:38.309Z,65
2022-10-22T02:35:44.445Z,65
2022-10-22T02:36:50.544Z,65
2022-10-22T02:37:56.640Z,65
2022-10-22T02:39:01.651Z,65
2022-10-22T02:40:07.838Z,65
2022-10-22T02:41:13.981Z,65
2022-10-22T02:42:20.148Z,65
2022-10-22T02:43:25.277Z,65
2022-10-22T02:44:31.418Z,65
2022-10-22T02:45:37.475Z,65
2022-10-22T02:46:42.589Z,65
2022-10-22T02:47:47.744Z,65
2022-10-22T02:48:53.866Z,65
2022-10-22T02:49:58.869Z,65
2022-10-22T02:51:04.116Z,65
2022-10-22T02:52:10.265Z,65
2022-10-22T02:53:16.262Z,65
2022-10-22T02:54:22.335Z,65
2022-10-22T02:55:28.528Z,65
2022-10-22T02:56:34.721Z,65
2022-10-22T02:57:40.712Z,65
2022-10-22T02:58:46.939Z,65
2022-10-22T02:59:53.058Z,65
2022-10-22T03:00:59.029Z,65
2022-10-22T03:02:05.185Z,65
2022-10-22T03:03:11.398Z,65
2022-10-22T03:04:17.364Z,65
2022-10-22T03:05:22.570Z,65
2022-10-22T03:06:28.727Z,65
2022-10-22T03:07:34.831Z,65
2022-10-22T03:08:40.924Z,65
2022-10-22T03:09:47.098Z,65
2022-10-22T03:10:53.065Z,65
2022-10-22T03:11:59.247Z,65
2022-10-22T03:13:04.310Z,65
2022-10-22T03:14:09.450Z,65
2022-10-22T03:15:14.696Z,65
2022-10-22T03:16:19.718Z,65
2022-10-22T03:17:25.844Z,65
2022-10-22T03:18:32.045Z,65
2022-10-22T03:20:44.299Z,65
2022-10-22T03:21:50.370Z,65
2022-10-22T03:22:56.384Z,65
2022-10-22T03:24:02.638Z,65
2022-10-22T03:25:08.738Z,65
2022-10-22T03:26:14.878Z,65
2022-10-22T03:27:20.974Z,65
2022-10-22T03:28:26.957Z,65
2022-10-22T03:29:33.076Z,65
2022-10-22T03:30:38.213Z,65
2022-10-22T03:31:44.320Z,65
2022-10-22T03:32:50.426Z,65
2022-10-22T03:33:56.570Z,65
2022-10-22T03:35:02.654Z,65
2022-10-22T03:36:08.799Z,65
2022-10-22T03:37:14.886Z,65
2022-10-22T03:38:20.998Z,65
2022-10-22T03:39:26.154Z,65
2022-10-22T03:40:31.269Z,65
2022-10-22T03:41:37.380Z,65
2022-10-22T03:42:42.519Z,65
2022-10-22T03:43:47.652Z,65
2022-10-22T03:44:53.760Z,65
2022-10-22T03:45:59.883Z,65
2022-10-22T03:47:05.979Z,65
2022-10-22T03:48:12.112Z,65
2022-10-22T03:49:18.214Z,65
2022-10-22T03:50:24.325Z,65
2022-10-22T03:51:30.442Z,65
2022-10-22T03:52:36.554Z,65
2022-10-22T03:53:42.664Z,65
2022-10-22T03:54:48.786Z,65
2022-10-22T03:55:54.890Z,65
2022-10-22T03:57:01.008Z,65
2022-10-22T03:58:06.136Z,65
2022-10-22T03:59:12.244Z,65
2022-10-22T04:00:18.362Z,65
2022-10-22T04:01:24.476Z,65
2022-10-22T04:02:30.622Z,65
2022-10-22T04:03:36.711Z,65
2022-10-22T04:04:43.014Z,65
2022-10-22T04:05:47.954Z,65
2022-10-22T04:06:53.093Z,65
2022-10-22T04:07:59.195Z,65
2022-10-22T04:09:05.338Z,65
2022-10-22T04:10:10.464Z,65
2022-10-22T04:11:15.577Z,65
2022-10-22T04:12:21.699Z,65
2022-10-22T04:13:27.800Z,65
2022-10-22T04:14:33.925Z,65
2022-10-22T04:15:40.040Z,65
2022-10-22T04:16:46.150Z,65
2022-10-22T04:17:52.266Z,65
2022-10-22T04:18:58.378Z,65
2022-10-22T04:20:04.493Z,65
2022-10-22T04:21:10.607Z,65
2022-10-22T04:22:16.754Z,65
2022-10-22T04:23:22.825Z,65
2022-10-22T04:24:28.945Z,65
2022-10-22T04:25:34.071Z,65
2022-10-22T04:26:40.184Z,65
2022-10-22T04:27:46.345Z,65
2022-10-22T04:28:52.408Z,65
2022-10-22T04:29:58.530Z,65
2022-10-22T04:31:04.643Z,65
2022-10-22T04:32:10.763Z,65
2022-10-22T04:33:15.896Z,65
2022-10-22T04:34:21.023Z,65
2022-10-22T04:35:27.136Z,65
2022-10-22T04:36:33.245Z,65
2022-10-22T04:37:39.367Z,65
2022-10-22T04:38:45.470Z,65
2022-10-22T04:39:51.593Z,65
2022-10-22T04:40:57.702Z,65
2022-10-22T04:42:03.815Z,65
2022-10-22T04:43:09.927Z,65
2022-10-22T04:44:16.049Z,65
2022-10-22T04:45:22.160Z,65
2022-10-22T04:46:28.269Z,65
2022-10-22T04:47:34.389Z,65
2022-10-22T04:48:39.526Z,65
2022-10-22T04:49:45.626Z,65
2022-10-22T04:50:51.749Z,65
2022-10-22T04:51:57.854Z,65
2022-10-22T04:53:03.976Z,65
2022-10-22T04:54:10.081Z,65
2022-10-22T04:55:16.202Z,65
2022-10-22T04:56:21.341Z,65
2022-10-22T04:57:26.465Z,65
2022-10-22T04:58:31.599Z,65
2022-10-22T04:59:36.730Z,65
2022-10-22T05:00:42.849Z,65
2022-10-22T05:01:47.979Z,65
2022-10-22T05:02:53.112Z,65
2022-10-22T05:03:59.222Z,65
2022-10-22T05:05:05.338Z,65
2022-10-22T05:06:11.467Z,65
2022-10-22T05:07:17.567Z,64.5
2022-10-22T05:08:23.675Z,65
2022-10-22T05:09:29.785Z,64.5
2022-10-22T05:10:35.906Z,64.5
2022-10-22T05:11:42.019Z,64.5
2022-10-22T05:12:48.136Z,64.5
2022-10-22T05:13:54.250Z,64.5
2022-10-22T05:15:00.361Z,64.5
2022-10-22T05:16:06.470Z,64.5
2022-10-22T05:17:11.615Z,64.5
2022-10-22T05:18:17.742Z,64.5
2022-10-22T05:19:23.837Z,64.5
2022-10-22T05:20:29.944Z,64.5
2022-10-22T05:21:36.065Z,64.5
2022-10-22T05:22:42.174Z,64.5
2022-10-22T05:23:48.307Z,64.5
2022-10-22T05:24:53.427Z,64.5
2022-10-22T05:25:58.550Z,64.5
2022-10-22T05:27:04.789Z,64.5
2022-10-22T05:28:09.800Z,64.5
2022-10-22T05:29:14.930Z,64.5
2022-10-22T05:30:21.054Z,64.5
2022-10-22T05:31:27.159Z,64.5
2022-10-22T05:32:33.271Z,64.5
2022-10-22T05:33:39.394Z,64.5
2022-10-22T05:34:45.533Z,64.5
2022-10-22T05:35:51.612Z,64.5
2022-10-22T05:36:57.727Z,64.5
2022-10-22T05:38:03.846Z,64.5
2022-10-22T05:39:09.966Z,64.5
2022-10-22T05:40:16.091Z,64.5
2022-10-22T05:41:22.188Z,64.5
2022-10-22T05:42:28.303Z,64.5
2022-10-22T05:43:33.426Z,64.5
2022-10-22T05:44:39.542Z,64.5
2022-10-22T05:45:45.657Z,64.5
2022-10-22T05:46:51.765Z,64.5
2022-10-22T05:47:57.880Z,64.5
2022-10-22T05:49:03.989Z,64.5
2022-10-22T05:50:10.109Z,64.5
2022-10-22T05:51:15.245Z,64.5
2022-10-22T05:52:20.373Z,64.5
2022-10-22T05:53:26.498Z,64.5
2022-10-22T05:54:31.709Z,64.5
2022-10-22T05:55:36.753Z,64.5
2022-10-22T05:56:42.871Z,64.5
2022-10-22T05:57:48.989Z,64.5
2022-10-22T06:00:01.242Z,64.5
2022-10-22T06:01:07.320Z,64.5
2022-10-22T06:02:13.434Z,64.5
2022-10-22T06:03:19.551Z,64.5
2022-10-22T06:04:25.664Z,64.5
2022-10-22T06:05:31.792Z,64.5
2022-10-22T06:06:37.894Z,64.5
2022-10-22T06:07:44.018Z,64.5
2022-10-22T06:08:50.139Z,64.5
2022-10-22T06:09:55.278Z,64.5
2022-10-22T06:11:01.394Z,64.5
2022-10-22T06:12:07.488Z,64.5
2022-10-22T06:13:13.585Z,64.5
2022-10-22T06:14:19.701Z,64.5
2022-10-22T06:15:25.825Z,64.5
2022-10-22T06:16:31.951Z,64.5
2022-10-22T06:17:38.045Z,64.5
2022-10-22T06:18:43.177Z,64.5
2022-10-22T06:19:48.448Z,64.5
2022-10-22T06:20:54.422Z,64.5
2022-10-22T06:21:59.565Z,64.5
2022-10-22T06:23:04.695Z,64.5
2022-10-22T06:25:15.953Z,64.5
2022-10-22T06:26:21.087Z,64.5
2022-10-22T06:27:27.191Z,64.5
2022-10-22T06:28:33.329Z,64.5
2022-10-22T06:29:39.446Z,64.5
2022-10-22T06:30:45.622Z,64.5
2022-10-22T06:31:51.651Z,64.5
2022-10-22T06:32:57.753Z,64.5
2022-10-22T06:34:03.867Z,64.5
2022-10-22T06:35:09.983Z,64.5
2022-10-22T06:36:16.100Z,64.5
2022-10-22T06:37:22.209Z,64.5
2022-10-22T06:38:28.463Z,64.5
2022-10-22T06:39:34.593Z,64.5
2022-10-22T06:40:39.644Z,64.5
2022-10-22T06:41:45.801Z,64.5
2022-10-22T06:42:51.856Z,64.5
2022-10-22T06:43:58.069Z,64.5
2022-10-22T06:45:04.201Z,64.5
2022-10-22T06:46:09.316Z,64.5
2022-10-22T06:47:14.434Z,64.5
2022-10-22T06:48:19.561Z,64.5
2022-10-22T06:49:24.698Z,64.5
2022-10-22T06:50:30.675Z,64.5
2022-10-22T06:51:36.909Z,64.5
2022-10-22T06:52:43.043Z,64.5
2022-10-22T06:53:49.140Z,64.5
2022-10-22T06:54:55.279Z,64.5
2022-10-22T06:56:01.376Z,64.5
2022-10-22T06:57:07.478Z,64.5
2022-10-22T06:58:13.605Z,64.5
2022-10-22T06:59:19.723Z,64.5
2022-10-22T07:00:25.827Z,64.5
2022-10-22T07:01:31.932Z,64.5
2022-10-22T07:02:37.928Z,64.5
2022-10-22T07:03:43.185Z,64.5
2022-10-22T07:04:49.162Z,64.5
2022-10-22T07:05:55.379Z,64.5
2022-10-22T07:07:01.550Z,64.5
2022-10-22T07:08:07.504Z,64.5
2022-10-22T07:09:13.764Z,64.5
2022-10-22T07:10:19.833Z,64.5
2022-10-22T07:11:24.965Z,64.5
2022-10-22T07:12:30.149Z,64.5
2022-10-22T07:13:36.290Z,64.5
2022-10-22T07:14:42.336Z,64.5
2022-10-22T07:15:48.468Z,64.5
2022-10-22T07:16:54.594Z,64.5
2022-10-22T07:18:00.655Z,64.5
2022-10-22T07:19:06.804Z,64.5
2022-10-22T07:20:12.937Z,64.5
2022-10-22T07:21:19.060Z,64.5
2022-10-22T07:22:25.021Z,64.5
2022-10-22T07:23:31.287Z,64.5
2022-10-22T07:24:37.248Z,64.5
2022-10-22T07:25:43.470Z,64.5
2022-10-22T07:26:48.491Z,64.5
2022-10-22T07:27:54.685Z,64.5
2022-10-22T07:29:00.772Z,65
2022-10-22T07:30:06.920Z,64.5
2022-10-22T07:31:13.065Z,64.5
2022-10-22T07:32:19.163Z,64.5
2022-10-22T07:33:25.339Z,64.5
2022-10-22T07:34:30.350Z,64.5
2022-10-22T07:35:35.578Z,65
2022-10-22T07:36:40.734Z,64.5
2022-10-22T07:37:45.761Z,64.5
2022-10-22T07:38:51.959Z,65
2022-10-22T07:39:57.088Z,64.5
2022-10-22T07:41:02.168Z,65
2022-10-22T07:42:08.311Z,65
2022-10-22T07:43:14.473Z,64.5
2022-10-22T07:44:20.427Z,64.5
2022-10-22T07:45:26.623Z,65
2022-10-22T07:46:32.755Z,65
2022-10-22T07:47:38.760Z,64.5
2022-10-22T07:48:44.951Z,65
2022-10-22T07:49:51.108Z,65
2022-10-22T07:50:57.100Z,65
2022-10-22T07:52:03.234Z,64.5
2022-10-22T07:53:09.443Z,64.5
2022-10-22T07:54:15.600Z,65
2022-10-22T07:55:20.682Z,65
2022-10-22T07:56:26.738Z,65
2022-10-22T07:57:32.959Z,65
2022-10-22T07:58:39.018Z,64.5
2022-10-22T07:59:45.036Z,65
2022-10-22T08:00:51.144Z,65
2022-10-22T08:01:57.365Z,65
2022-10-22T08:03:02.481Z,65
2022-10-22T08:04:07.657Z,64.5
2022-10-22T08:05:13.767Z,65
2022-10-22T08:06:18.824Z,65
2022-10-22T08:07:23.938Z,65
2022-10-22T08:08:30.033Z,65
2022-10-22T08:09:36.192Z,65
2022-10-22T08:10:42.246Z,65
2022-10-22T08:11:48.485Z,64.5
2022-10-22T08:12:54.557Z,65
2022-10-22T08:14:00.735Z,65
2022-10-22T08:15:06.797Z,65
2022-10-22T08:16:12.860Z,65
2022-10-22T08:17:18.933Z,65
2022-10-22T08:18:25.204Z,65
2022-10-22T08:19:31.216Z,65
2022-10-22T08:20:37.262Z,65
2022-10-22T08:21:42.447Z,65
2022-10-22T08:22:48.622Z,65
2022-10-22T08:23:54.627Z,65
2022-10-22T08:25:00.797Z,65
2022-10-22T08:26:07.010Z,65
2022-10-22T08:27:13.114Z,65
2022-10-22T08:28:19.215Z,64.5
2022-10-22T08:29:24.305Z,65
2022-10-22T08:30:29.342Z,65
2022-10-22T08:31:35.594Z,65
2022-10-22T08:32:41.718Z,65
2022-10-22T08:33:47.806Z,65
2022-10-22T08:34:53.799Z,65
2022-10-22T08:35:59.915Z,65
2022-10-22T08:37:06.087Z,65
2022-10-22T08:38:12.174Z,65
2022-10-22T08:39:18.398Z,65
2022-10-22T08:40:24.484Z,65
2022-10-22T08:41:30.497Z,65
2022-10-22T08:42:36.693Z,65
2022-10-22T08:43:42.771Z,65
2022-10-22T08:44:47.873Z,65
2022-10-22T08:45:53.946Z,65
2022-10-22T08:47:00.090Z,65
2022-10-22T08:48:06.259Z,65
2022-10-22T08:49:12.359Z,65
2022-10-22T08:50:18.400Z,65
2022-10-22T08:51:24.525Z,65
2022-10-22T08:52:29.802Z,65
2022-10-22T08:53:34.912Z,65
2022-10-22T08:54:39.961Z,65
2022-10-22T08:55:45.101Z,65
2022-10-22T08:56:51.305Z,65
2022-10-22T08:57:57.417Z,65
2022-10-22T08:59:03.533Z,65
2022-10-22T09:00:09.655Z,65
2022-10-22T09:01:15.702Z,65
2022-10-22T09:02:21.872Z,65
2022-10-22T09:03:27.975Z,65
2022-10-22T09:04:34.098Z,65
2022-10-22T09:05:40.133Z,65
2022-10-22T09:06:46.335Z,65
2022-10-22T09:07:52.419Z,65
2022-10-22T09:08:58.550Z,65
2022-10-22T09:10:03.563Z,65
2022-10-22T09:11:09.750Z,65
2022-10-22T09:12:15.903Z,65
2022-10-22T09:13:22.001Z,65
2022-10-22T09:14:27.998Z,65
2022-10-22T09:15:34.221Z,65
2022-10-22T09:16:40.350Z,65
2022-10-22T09:17:45.508Z,65
2022-10-22T09:18:50.619Z,65
2022-10-22T09:19:55.787Z,65
2022-10-22T09:21:00.901Z,65
2022-10-22T09:22:07.004Z,65
2022-10-22T09:23:13.107Z,65
2022-10-22T09:24:19.271Z,65
2022-10-22T09:25:25.365Z,65
2022-10-22T09:26:31.481Z,65
2022-10-22T09:27:37.586Z,65
2022-10-22T09:28:43.683Z,65
2022-10-22T09:29:49.777Z,65
2022-10-22T09:30:55.847Z,65
2022-10-22T09:32:01.898Z,65
2022-10-22T09:33:08.006Z,65
2022-10-22T09:34:14.249Z,65
2022-10-22T09:35:19.393Z,65
2022-10-22T09:36:25.496Z,65
2022-10-22T09:37:31.650Z,65
2022-10-22T09:38:37.677Z,65
2022-10-22T09:39:43.850Z,65
2022-10-22T09:40:49.867Z,65
2022-10-22T09:41:56.099Z,65
2022-10-22T09:43:01.217Z,65
2022-10-22T09:44:06.356Z,65
2022-10-22T09:45:11.345Z,65
2022-10-22T09:46:16.479Z,65
2022-10-22T09:47:22.730Z,65
2022-10-22T09:48:28.827Z,65
2022-10-22T09:49:34.957Z,65
2022-10-22T09:50:41.003Z,65
2022-10-22T09:51:47.038Z,65
2022-10-22T09:52:53.190Z,65
2022-10-22T09:53:59.261Z,65
2022-10-22T09:55:05.460Z,65
2022-10-22T09:56:11.645Z,65
2022-10-22T09:57:17.753Z,65
2022-10-22T09:58:23.840Z,65
2022-10-22T09:59:29.861Z,65
2022-10-22T10:00:35.067Z,66
2022-10-22T10:01:41.074Z,66.5
2022-10-22T10:02:47.273Z,67.5
2022-10-22T10:03:53.450Z,67.5
2022-10-22T10:04:59.455Z,67.5
2022-10-22T10:06:05.567Z,68
2022-10-22T10:07:10.671Z,68
2022-10-22T10:08:15.860Z,68
2022-10-22T10:09:20.929Z,68
2022-10-22T10:10:27.163Z,68
2022-10-22T10:11:33.312Z,68.5
2022-10-22T10:12:38.301Z,68
2022-10-22T10:13:43.537Z,68.5
2022-10-22T10:14:49.537Z,68
2022-10-22T10:15:55.721Z,68
2022-10-22T10:17:01.794Z,68.5
2022-10-22T10:18:08.020Z,68.5
2022-10-22T10:19:14.124Z,68.5
2022-10-22T10:20:20.103Z,68.5
2022-10-22T10:21:26.221Z,68.5
2022-10-22T10:22:32.338Z,68.5
2022-10-22T10:23:38.596Z,68.5
2022-10-22T10:24:44.626Z,69
2022-10-22T10:25:50.799Z,68.5
2022-10-22T10:26:56.935Z,69
2022-10-22T10:28:02.074Z,68.5
2022-10-22T10:29:08.193Z,69
2022-10-22T10:30:14.277Z,69
2022-10-22T10:31:20.415Z,69
2022-10-22T10:32:26.486Z,69
2022-10-22T10:33:32.606Z,69
2022-10-22T10:34:38.667Z,69
2022-10-22T10:35:43.824Z,69
2022-10-22T10:36:48.871Z,69
2022-10-22T10:37:54.143Z,69
2022-10-22T10:38:59.268Z,69
2022-10-22T10:40:05.429Z,69
2022-10-22T10:41:11.429Z,69
2022-10-22T10:42:17.598Z,69
2022-10-22T10:43:23.629Z,69
2022-10-22T10:44:29.699Z,69
2022-10-22T10:45:35.812Z,69
2022-10-22T10:46:41.945Z,69
2022-10-22T10:47:48.154Z,68.5
2022-10-22T10:48:54.156Z,68.5
2022-10-22T10:50:00.267Z,68.5
2022-10-22T10:51:06.380Z,68.5
2022-10-22T10:52:12.499Z,68.5
2022-10-22T10:53:17.624Z,68.5
2022-10-22T10:54:23.759Z,68.5
2022-10-22T10:55:29.849Z,68.5
2022-10-22T10:56:35.963Z,68.5
2022-10-22T10:57:42.080Z,68.5
2022-10-22T10:58:48.222Z,68.5
2022-10-22T10:59:54.372Z,68.5
2022-10-22T11:00:59.438Z,68
2022-10-22T11:02:04.575Z,68
2022-10-22T11:03:10.689Z,68
2022-10-22T11:04:16.810Z,68
2022-10-22T11:05:22.933Z,68
2022-10-22T11:06:29.025Z,68
2022-10-22T11:07:35.148Z,68
2022-10-22T11:08:41.259Z,68
2022-10-22T11:09:47.369Z,68
2022-10-22T11:10:53.481Z,68
2022-10-22T11:11:59.598Z,68
2022-10-22T11:13:05.726Z,68
2022-10-22T11:14:11.830Z,68
2022-10-22T11:15:17.928Z,68
2022-10-22T11:16:23.070Z,68
2022-10-22T11:17:29.180Z,68
2022-10-22T11:18:35.299Z,68
2022-10-22T11:19:41.412Z,68
2022-10-22T11:20:47.532Z,68
2022-10-22T11:21:53.639Z,68
2022-10-22T11:22:59.753Z,68
2022-10-22T11:24:04.887Z,68
2022-10-22T11:25:10.015Z,68
2022-10-22T11:26:16.131Z,68
2022-10-22T11:27:22.248Z,68
2022-10-22T11:28:28.361Z,68
2022-10-22T11:29:34.539Z,68
2022-10-22T11:30:40.589Z,68
2022-10-22T11:31:46.706Z,68
2022-10-22T11:32:52.864Z,68
2022-10-22T11:33:58.931Z,68
2022-10-22T11:35:05.046Z,68
2022-10-22T11:36:11.156Z,68
2022-10-22T11:37:17.266Z,68
2022-10-22T11:38:23.392Z,68
2022-10-22T11:39:28.513Z,68
2022-10-22T11:40:34.628Z,68
2022-10-22T11:41:40.745Z,67.5
2022-10-22T11:42:46.856Z,67.5
2022-10-22T11:43:52.971Z,67.5
2022-10-22T11:44:59.080Z,67.5
2022-10-22T11:46:05.210Z,67.5
2022-10-22T11:47:10.333Z,67.5
2022-10-22T11:48:15.462Z,67.5
2022-10-22T11:49:20.597Z,67.5
2022-10-22T11:50:25.734Z,67.5
2022-10-22T11:51:30.857Z,67.5
2022-10-22T11:52:35.990Z,67.5
2022-10-22T11:53:42.113Z,67.5
2022-10-22T11:54:48.215Z,67.5
2022-10-22T11:55:54.326Z,67.5
2022-10-22T11:57:00.468Z,67.5
2022-10-22T11:58:06.577Z,67.5
2022-10-22T11:59:12.668Z,67.5
2022-10-22T12:00:18.791Z,67.5
2022-10-22T12:01:24.926Z,67.5
2022-10-22T12:02:31.019Z,67.5
2022-10-22T12:03:37.128Z,67.5
2022-10-22T12:04:43.243Z,67.5
2022-10-22T12:05:49.367Z,67.5
2022-10-22T12:06:54.489Z,67.5
2022-10-22T12:08:01.117Z,67.5
2022-10-22T12:09:06.729Z,67.5
2022-10-22T12:10:12.870Z,67.5
2022-10-22T12:11:18.944Z,67.5
2022-10-22T12:12:25.055Z,67.5
2022-10-22T12:13:31.167Z,67.5
2022-10-22T12:14:36.299Z,67.5
2022-10-22T12:15:41.431Z,67.5
2022-10-22T12:16:46.564Z,67.5
2022-10-22T12:17:51.698Z,67.5
2022-10-22T12:18:57.813Z,67.5
2022-10-22T12:20:03.954Z,67.5
2022-10-22T12:21:10.039Z,67
2022-10-22T12:22:16.160Z,67
2022-10-22T12:23:22.271Z,67
2022-10-22T12:24:28.376Z,67
2022-10-22T12:25:34.494Z,67
2022-10-22T12:26:40.607Z,67
2022-10-22T12:27:46.727Z,67
2022-10-22T12:28:52.837Z,67
2022-10-22T12:29:58.944Z,67
2022-10-22T12:31:05.062Z,67
2022-10-22T12:32:10.186Z,67
2022-10-22T12:33:16.394Z,67
2022-10-22T12:34:22.482Z,67
2022-10-22T12:35:28.535Z,67
2022-10-22T12:36:34.647Z,67
2022-10-22T12:37:40.763Z,67
2022-10-22T12:38:46.871Z,67
2022-10-22T12:39:52.024Z,67
2022-10-22T12:40:57.133Z,67
2022-10-22T12:42:03.246Z,67
2022-10-22T12:43:09.370Z,67
2022-10-22T12:44:15.475Z,67
2022-10-22T12:45:21.599Z,67
2022-10-22T12:46:27.740Z,67
2022-10-22T12:47:33.828Z,67
2022-10-22T12:48:39.987Z,67
2022-10-22T12:49:46.047Z,67
2022-10-22T12:50:52.159Z,67
2022-10-22T12:51:58.293Z,67
2022-10-22T12:53:04.382Z,67
2022-10-22T12:54:10.497Z,67
2022-10-22T12:55:15.630Z,67
2022-10-22T12:56:21.796Z,67
2022-10-22T12:57:27.850Z,67
2022-10-22T12:58:33.999Z,67
2022-10-22T12:59:40.187Z,67
2022-10-22T13:00:46.199Z,67
2022-10-22T13:01:52.317Z,67
2022-10-22T13:02:57.524Z,67
2022-10-22T13:04:02.597Z,67
2022-10-22T13:05:07.714Z,67
2022-10-22T13:06:12.844Z,67
2022-10-22T13:07:18.971Z,67
2022-10-22T13:08:25.070Z,67
2022-10-22T13:09:30.229Z,67
2022-10-22T13:10:35.398Z,67
2022-10-22T13:11:41.453Z,67
2022-10-22T13:12:47.567Z,67
2022-10-22T13:13:53.709Z,67
2022-10-22T13:14:59.791Z,67
2022-10-22T13:16:05.909Z,67
2022-10-22T13:17:12.015Z,67
2022-10-22T13:18:18.131Z,67
2022-10-22T13:19:24.245Z,67
2022-10-22T13:20:30.364Z,67
2022-10-22T13:21:36.474Z,67
2022-10-22T13:22:42.601Z,67
2022-10-22T13:23:48.698Z,67
2022-10-22T13:24:53.834Z,67
2022-10-22T13:25:59.944Z,67
2022-10-22T13:27:06.092Z,67
2022-10-22T13:28:12.178Z,67
2022-10-22T13:29:18.287Z,67
2022-10-22T13:30:24.401Z,67
2022-10-22T13:31:30.522Z,67
2022-10-22T13:32:35.701Z,67
2022-10-22T13:33:40.778Z,67
2022-10-22T13:34:46.895Z,66.5
2022-10-22T13:35:52.035Z,66.5
2022-10-22T13:36:57.186Z,66.5
2022-10-22T13:38:03.317Z,66.5
2022-10-22T13:39:09.398Z,66.5
2022-10-22T13:40:15.507Z,66.5
2022-10-22T13:41:21.620Z,66.5
2022-10-22T13:42:27.722Z,66.5
2022-10-22T13:43:33.844Z,66.5
2022-10-22T13:44:39.962Z,66.5
2022-10-22T13:45:46.063Z,66.5
2022-10-22T13:46:52.181Z,66.5
2022-10-22T13:47:57.316Z,66.5
2022-10-22T13:49:03.429Z,66.5
2022-10-22T13:50:09.542Z,66.5
2022-10-22T13:51:15.658Z,66.5
2022-10-22T13:52:21.772Z,66.5
2022-10-22T13:53:27.885Z,66.5
2022-10-22T13:54:33.998Z,66.5
2022-10-22T13:55:40.114Z,66.5
2022-10-22T13:56:46.256Z,66.5
2022-10-22T13:57:52.345Z,66.5
2022-10-22T13:58:57.477Z,66.5
2022-10-22T14:00:02.608Z,66.5
2022-10-22T14:01:08.714Z,66.5
2022-10-22T14:02:14.839Z,66.5
2022-10-22T14:03:19.971Z,66.5
2022-10-22T14:04:25.139Z,66.5
2022-10-22T14:05:31.212Z,66.5
2022-10-22T14:06:37.335Z,66.5
2022-10-22T14:07:43.441Z,66.5
2022-10-22T14:08:49.557Z,66.5
2022-10-22T14:09:55.741Z,66.5
2022-10-22T14:11:01.785Z,66.5
2022-10-22T14:12:07.900Z,66.5
2022-10-22T14:13:14.014Z,66.5
2022-10-22T14:14:20.134Z,66.5
2022-10-22T14:15:26.243Z,66.5
2022-10-22T14:16:32.351Z,66.5
2022-10-22T14:17:38.465Z,66.5
2022-10-22T14:18:43.596Z,66.5
2022-10-22T14:19:49.708Z,66.5
2022-10-22T14:20:55.825Z,66.5
2022-10-22T14:22:01.982Z,66.5
2022-10-22T14:23:08.056Z,66.5
2022-10-22T14:24:14.173Z,66.5
2022-10-22T14:25:20.328Z,66.5
2022-10-22T14:26:25.417Z,66.5
2022-10-22T14:27:30.537Z,66.5
2022-10-22T14:28:35.683Z,66.5
2022-10-22T14:29:40.829Z,66.5
2022-10-22T14:30:46.964Z,66.5
2022-10-22T14:31:53.063Z,66.5
2022-10-22T14:32:59.151Z,66.5
2022-10-22T14:34:05.257Z,66.5
2022-10-22T14:35:11.381Z,66.5
2022-10-22T14:36:17.508Z,66.5
2022-10-22T14:37:23.607Z,66.5
2022-10-22T14:38:29.746Z,66.5
2022-10-22T14:39:35.884Z,66.5
2022-10-22T14:40:41.947Z,66.5
2022-10-22T14:41:48.052Z,66.5
2022-10-22T14:42:54.175Z,66.5
2022-10-22T14:43:59.313Z,66.5
2022-10-22T14:45:05.416Z,66.5
2022-10-22T14:46:11.528Z,66.5
2022-10-22T14:47:17.721Z,66.5
2022-10-22T14:48:23.760Z,66.5
2022-10-22T14:49:29.870Z,66.5
2022-10-22T14:50:35.989Z,66.5
2022-10-22T14:51:41.127Z,66.5
2022-10-22T14:52:46.289Z,66.5
2022-10-22T14:53:52.393Z,66.5
2022-10-22T14:54:57.507Z,66.5
2022-10-22T14:56:02.630Z,66.5
2022-10-22T14:57:08.775Z,66.5
2022-10-22T14:58:14.856Z,66.5
2022-10-22T14:59:21.006Z,66.5
2022-10-22T15:00:27.086Z,66.5
2022-10-22T15:01:33.320Z,66.5
2022-10-22T15:02:39.311Z,66.5
2022-10-22T15:03:45.438Z,66.5
2022-10-22T15:04:51.544Z,66.5
2022-10-22T15:05:57.659Z,66.5
2022-10-22T15:07:03.829Z,66.5
2022-10-22T15:08:09.919Z,66.5
2022-10-22T15:09:16.044Z,66.5
2022-10-22T15:10:21.142Z,66.5
2022-10-22T15:11:27.242Z,66.5
2022-10-22T15:12:33.446Z,66.5
2022-10-22T15:13:39.559Z,66.5
2022-10-22T15:14:45.573Z,66.5
2022-10-22T15:15:51.724Z,66.5
2022-10-22T15:16:57.860Z,66.5
2022-10-22T15:18:02.985Z,66.5
2022-10-22T15:19:08.131Z,66.5
2022-10-22T15:20:14.213Z,66.5
2022-10-22T15:21:19.449Z,66.5